Time;durP1;ratioP1;P1;durP2;ratioP2;P2;SDS_P1;SDS_P2;PMS_P1;PMS_P2;Temp;Humidity;BMP_temperature;BMP_pressure;BME280_temperature;BME280_humidity;BME280_pressure;Samples;Min_cycle;Max_cycle;Signal;HPM_P1;HPM_P2
2023/06/07 00:01:54;;;;;;;3.67;2.97;;;;;;;17.99;55.98;95071.38;5118393;28;20180;-73
2023/06/07 00:04:22;;;;;;;3.38;3.03;;;;;;;17.99;55.27;95077.72;5117464;28;20202;-73
2023/06/07 00:07:00;;;;;;;3.47;2.97;;;;;;;17.99;55.47;95071.38;5118156;28;20599;-73
2023/06/07 00:09:31;;;;;;;3.95;2.80;;;;;;;17.96;55.16;95074.94;5118094;28;20199;-74
2023/06/07 00:11:59;;;;;;;4.43;2.78;;;;;;;17.91;55.37;95067.78;5117258;28;20196;-73
2023/06/07 00:14:28;;;;;;;3.20;2.90;;;;;;;17.86;55.52;95072.97;5118118;28;20203;-73
2023/06/07 00:16:57;;;;;;;3.65;2.90;;;;;;;17.84;55.34;95075.38;5116893;28;20203;-73
2023/06/07 00:19:26;;;;;;;3.33;3.03;;;;;;;17.79;55.54;95074.56;5117653;28;20650;-73
2023/06/07 00:21:53;;;;;;;3.50;3.20;;;;;;;17.82;55.89;95078.53;5116953;28;20268;-73
2023/06/07 00:24:22;;;;;;;3.75;2.70;;;;;;;17.81;55.78;95068.59;5117745;28;20238;-73
2023/06/07 00:26:55;;;;;;;3.17;2.83;;;;;;;17.80;55.81;95064.22;5117656;28;20536;-73
2023/06/07 00:29:21;;;;;;;3.20;2.95;;;;;;;17.79;55.75;95069.00;5117519;28;20218;-73
2023/06/07 00:31:52;;;;;;;4.72;3.20;;;;;;;17.76;56.02;95063.41;5117831;28;20203;-73
2023/06/07 00:34:21;;;;;;;3.05;2.83;;;;;;;17.70;56.08;95068.56;5117705;28;20212;-73
2023/06/07 00:36:48;;;;;;;3.72;2.95;;;;;;;17.67;56.13;95066.56;5116762;28;20207;-73
2023/06/07 00:39:16;;;;;;;3.40;3.10;;;;;;;17.65;56.40;95065.38;5117325;28;20575;-73
2023/06/07 00:41:44;;;;;;;3.38;2.83;;;;;;;17.62;56.60;95066.97;5117772;28;20195;-73
2023/06/07 00:44:17;;;;;;;3.78;2.90;;;;;;;17.62;57.12;95068.97;5117593;28;20194;-73
2023/06/07 00:46:48;;;;;;;4.40;2.80;;;;;;;17.60;56.77;95068.56;5116717;28;20201;-73
2023/06/07 00:49:16;;;;;;;3.50;2.90;;;;;;;17.56;56.59;95071.34;5116248;28;20199;-74
2023/06/07 00:51:44;;;;;;;3.60;2.95;;;;;;;17.56;56.70;95079.72;5117255;28;20264;-74
2023/06/07 00:54:17;;;;;;;4.38;2.78;;;;;;;17.55;56.51;95072.56;5116558;28;20284;-73
2023/06/07 00:56:49;;;;;;;3.15;2.90;;;;;;;17.54;56.35;95073.75;5117360;28;20592;-73
2023/06/07 00:59:23;;;;;;;3.38;2.80;;;;;;;17.55;56.42;95078.13;5116815;28;20192;-74
2023/06/07 01:01:55;;;;;;;5.07;3.13;;;;;;;17.54;56.77;95073.75;5115947;28;20196;-74
2023/06/07 01:04:24;;;;;;;3.90;2.70;;;;;;;17.53;56.37;95072.94;5116151;28;20217;-74
2023/06/07 01:06:52;;;;;;;3.50;2.72;;;;;;;17.52;56.99;95070.56;5117236;28;20184;-74
2023/06/07 01:09:20;;;;;;;3.88;2.65;;;;;;;17.50;56.44;95072.94;5116919;28;20203;-76
2023/06/07 01:11:50;;;;;;;3.00;2.70;;;;;;;17.43;56.76;95068.16;5115856;28;20619;-74
2023/06/07 01:14:21;;;;;;;2.97;2.78;;;;;;;17.42;56.25;95060.97;5116011;28;20215;-74
2023/06/07 01:16:51;;;;;;;4.95;3.00;;;;;;;17.44;55.48;95057.81;5116056;28;20223;-73
2023/06/07 01:19:22;;;;;;;2.70;2.47;;;;;;;17.45;55.67;95053.81;5115941;28;20203;-73
2023/06/07 01:21:55;;;;;;;4.35;2.80;;;;;;;17.43;56.08;95064.56;5116807;28;20184;-73
2023/06/07 01:24:26;;;;;;;3.03;2.72;;;;;;;17.42;56.06;95065.75;5115604;28;20231;-74
2023/06/07 01:26:57;;;;;;;5.30;2.72;;;;;;;17.41;56.10;95064.97;5116769;28;20238;-74
2023/06/07 01:29:26;;;;;;;3.85;2.80;;;;;;;17.39;55.87;95063.75;5117051;28;20229;-74
2023/06/07 01:31:55;;;;;;;2.85;2.55;;;;;;;17.36;55.95;95058.97;5116619;28;20599;-74
2023/06/07 01:34:24;;;;;;;3.03;2.60;;;;;;;17.33;55.87;95063.38;5115645;28;20214;-74
2023/06/07 01:36:53;;;;;;;3.38;2.97;;;;;;;17.31;55.75;95062.97;5116531;28;20188;-73
2023/06/07 01:39:21;;;;;;;3.05;2.72;;;;;;;17.30;56.14;95053.81;5116461;28;20195;-73
2023/06/07 01:41:54;;;;;;;3.13;2.83;;;;;;;17.28;55.67;95059.00;5115940;28;20256;-73
2023/06/07 01:44:22;;;;;;;4.32;2.80;;;;;;;17.25;55.34;95051.41;5115568;28;20570;-73
2023/06/07 01:46:51;;;;;;;2.85;2.25;;;;;;;17.25;56.20;95054.22;5116088;28;20503;-73
2023/06/07 01:49:20;;;;;;;3.55;2.55;;;;;;;17.23;55.46;95050.22;5116256;28;20199;-73
2023/06/07 01:51:47;;;;;;;3.97;2.90;;;;;;;17.18;56.07;95047.84;5115877;28;20653;-73
2023/06/07 01:54:18;;;;;;;4.15;3.05;;;;;;;17.15;55.70;95048.63;5115839;28;20284;-73
2023/06/07 01:56:51;;;;;;;2.95;2.70;;;;;;;17.10;55.32;95055.34;5116384;28;20201;-73
2023/06/07 01:59:27;;;;;;;3.38;3.08;;;;;;;17.00;55.48;95053.38;5116367;28;20184;-73
2023/06/07 02:01:59;;;;;;;3.00;2.80;;;;;;;16.91;55.61;95053.72;5115628;28;20240;-73
2023/06/07 02:04:29;;;;;;;4.35;2.92;;;;;;;16.88;55.87;95048.94;5116425;28;20233;-73
2023/06/07 02:07:01;;;;;;;3.95;2.97;;;;;;;16.85;55.78;95052.53;5115822;28;20587;-74
2023/06/07 02:09:31;;;;;;;3.15;2.85;;;;;;;16.82;55.54;95056.91;5114388;28;20294;-73
2023/06/07 02:11:59;;;;;;;3.75;3.45;;;;;;;16.79;55.02;95052.13;5115067;28;20191;-73
2023/06/07 02:14:29;;;;;;;4.18;3.35;;;;;;;16.76;55.58;95060.47;5115263;28;20214;-73
2023/06/07 02:16:57;;;;;;;4.10;2.88;;;;;;;16.68;55.65;95051.25;5115186;28;20187;-74
2023/06/07 02:19:26;;;;;;;3.35;3.00;;;;;;;16.62;55.65;95058.38;5116176;28;20187;-73
2023/06/07 02:21:55;;;;;;;4.90;3.10;;;;;;;16.61;55.31;95063.16;5116129;28;20199;-73
2023/06/07 02:24:25;;;;;;;3.75;3.38;;;;;;;16.59;55.67;95065.56;5115731;28;20231;-73
2023/06/07 02:26:54;;;;;;;3.90;3.00;;;;;;;16.55;55.72;95059.16;5115805;28;20192;-73
2023/06/07 02:29:23;;;;;;;2.80;2.58;;;;;;;16.52;55.75;95068.31;5115787;28;20253;-74
2023/06/07 02:31:57;;;;;;;3.13;2.60;;;;;;;16.54;55.93;95068.69;5114787;28;20199;-73
2023/06/07 02:34:24;;;;;;;3.30;2.88;;;;;;;16.54;55.40;95068.69;5115327;28;20215;-73
2023/06/07 02:36:55;;;;;;;3.30;3.00;;;;;;;16.53;55.66;95069.09;5114732;28;20184;-73
2023/06/07 02:39:25;;;;;;;4.00;2.70;;;;;;;16.53;54.91;95055.97;5114576;28;20199;-74
2023/06/07 02:41:53;;;;;;;4.63;2.90;;;;;;;16.49;55.35;95068.28;5115318;28;20282;-73
2023/06/07 02:44:23;;;;;;;3.08;2.80;;;;;;;16.42;55.40;95066.28;5115534;28;20200;-73
2023/06/07 02:46:52;;;;;;;3.95;3.00;;;;;;;16.42;56.03;95069.06;5115454;28;20192;-74
2023/06/07 02:49:21;;;;;;;4.18;2.70;;;;;;;16.44;56.24;95068.66;5114288;28;20279;-73
2023/06/07 02:51:48;;;;;;;4.32;2.85;;;;;;;16.43;55.69;95067.06;5114442;28;20257;-73
2023/06/07 02:54:19;;;;;;;3.97;3.00;;;;;;;16.43;56.00;95065.06;5114394;28;20226;-73
2023/06/07 02:56:47;;;;;;;3.75;2.80;;;;;;;16.42;55.90;95066.28;5114330;28;20207;-73
2023/06/07 02:59:15;;;;;;;3.28;2.83;;;;;;;16.45;55.68;95067.44;5114283;28;20213;-74
2023/06/07 03:01:46;;;;;;;3.88;3.08;;;;;;;16.41;55.91;95061.88;5115224;28;20179;-75
2023/06/07 03:04:14;;;;;;;3.30;3.00;;;;;;;16.37;55.51;95063.84;5115427;28;20202;-72
2023/06/07 03:06:46;;;;;;;3.10;2.80;;;;;;;16.30;56.05;95067.41;5114698;28;20575;-72
2023/06/07 03:09:17;;;;;;;4.18;3.08;;;;;;;16.26;55.84;95066.56;5115382;28;20655;-71
2023/06/07 03:11:48;;;;;;;3.88;2.88;;;;;;;16.25;56.33;95067.75;5115541;28;20210;-72
2023/06/07 03:14:18;;;;;;;3.60;2.80;;;;;;;16.25;56.57;95066.97;5114465;28;20225;-71
2023/06/07 03:16:47;;;;;;;3.42;3.10;;;;;;;16.26;56.35;95072.13;5114477;28;20282;-71
2023/06/07 03:19:15;;;;;;;3.63;2.85;;;;;;;16.20;56.29;95070.94;5114409;28;20198;-71
2023/06/07 03:21:45;;;;;;;4.07;2.80;;;;;;;16.21;56.16;95068.94;5114014;28;20217;-71
2023/06/07 03:24:14;;;;;;;3.42;2.80;;;;;;;16.22;56.43;95071.31;5117745;28;20572;-71
2023/06/07 03:26:45;;;;;;;3.60;2.75;;;;;;;16.21;56.20;95063.38;5118056;28;20204;-71
2023/06/07 03:29:15;;;;;;;3.17;2.88;;;;;;;16.17;56.29;95066.13;5119060;28;20218;-72
2023/06/07 03:31:42;;;;;;;3.35;3.00;;;;;;;16.18;57.02;95062.16;5119021;28;20176;-71
2023/06/07 03:34:11;;;;;;;3.40;3.05;;;;;;;16.19;56.76;95065.72;5117919;28;20223;-71
2023/06/07 03:36:40;;;;;;;5.13;3.65;;;;;;;16.19;56.95;95060.16;5119038;28;20200;-70
2023/06/07 03:39:09;;;;;;;3.80;3.20;;;;;;;16.14;56.46;95061.34;5117921;28;20210;-72
2023/06/07 03:41:38;;;;;;;4.03;3.40;;;;;;;16.15;56.76;95059.34;5117226;28;20204;-73
2023/06/07 03:44:05;;;;;;;5.03;3.20;;;;;;;16.17;57.02;95065.34;5118672;28;20619;-71
2023/06/07 03:46:34;;;;;;;3.80;3.08;;;;;;;16.15;56.97;95068.50;5118752;28;20199;-71
2023/06/07 03:49:04;;;;;;;4.22;2.83;;;;;;;16.17;57.05;95062.56;5117846;28;20219;-70
2023/06/07 03:51:38;;;;;;;4.15;2.95;;;;;;;16.15;57.45;95062.94;5118718;28;20183;-71
2023/06/07 03:54:06;;;;;;;3.20;2.88;;;;;;;16.12;57.49;95063.72;5117572;28;20294;-70
2023/06/07 03:56:36;;;;;;;6.05;3.20;;;;;;;16.11;57.29;95057.34;5117374;28;20206;-71
2023/06/07 03:59:06;;;;;;;3.40;3.10;;;;;;;16.08;58.06;95055.34;5117145;28;20616;-71
2023/06/07 04:01:34;;;;;;;6.35;3.30;;;;;;;16.13;57.91;95059.75;5117497;28;20211;-71
2023/06/07 04:04:02;;;;;;;3.25;2.97;;;;;;;16.14;57.47;95058.56;5118407;28;20192;-70
2023/06/07 04:06:33;;;;;;;6.18;3.03;;;;;;;16.17;57.99;95065.34;5118157;28;20187;-72
2023/06/07 04:09:03;;;;;;;3.35;3.03;;;;;;;16.17;58.12;95065.34;5118295;28;20208;-73
2023/06/07 04:11:33;;;;;;;3.63;2.72;;;;;;;16.21;57.89;95071.72;5118543;28;20253;-73
2023/06/07 04:14:03;;;;;;;4.40;3.47;;;;;;;16.22;57.70;95062.97;5118148;28;20184;-73
2023/06/07 04:16:31;;;;;;;4.32;2.97;;;;;;;16.25;57.95;95064.97;5117404;28;20199;-73
2023/06/07 04:18:57;;;;;;;5.15;2.72;;;;;;;16.26;57.41;95066.56;5118153;28;20196;-73
2023/06/07 04:21:25;;;;;;;6.03;3.35;;;;;;;16.24;57.76;95059.81;5117020;28;20204;-72
2023/06/07 04:23:54;;;;;;;3.80;3.50;;;;;;;16.26;58.00;95063.78;5117871;28;20287;-72
2023/06/07 04:26:25;;;;;;;3.38;2.75;;;;;;;16.24;58.08;95063.41;5117940;28;20195;-72
2023/06/07 04:28:56;;;;;;;5.00;3.20;;;;;;;16.28;58.25;95064.22;5117744;28;20210;-73
2023/06/07 04:31:29;;;;;;;3.60;3.30;;;;;;;16.29;58.80;95060.22;5116874;28;20223;-74
2023/06/07 04:34:01;;;;;;;3.55;2.85;;;;;;;16.29;58.99;95060.22;5117514;28;20192;-73
2023/06/07 04:36:29;;;;;;;4.93;3.10;;;;;;;16.32;59.20;95059.44;5117519;28;20238;-73
2023/06/07 04:38:57;;;;;;;3.50;3.17;;;;;;;16.35;58.88;95064.25;5116642;28;20227;-73
2023/06/07 04:41:30;;;;;;;3.50;3.20;;;;;;;16.34;58.28;95061.88;5117691;28;20184;-74
2023/06/07 04:43:58;;;;;;;4.50;3.22;;;;;;;16.36;58.92;95067.81;5117393;28;20600;-73
2023/06/07 04:46:28;;;;;;;5.53;3.15;;;;;;;16.36;59.01;95065.03;5116997;28;20187;-73
2023/06/07 04:48:56;;;;;;;6.30;3.55;;;;;;;16.39;58.94;95067.03;5117512;28;20586;-74
2023/06/07 04:51:26;;;;;;;6.93;3.25;;;;;;;16.37;58.93;95061.06;5117470;28;20184;-73
2023/06/07 04:53:58;;;;;;;6.47;3.60;;;;;;;16.41;59.81;95066.63;5116924;28;20196;-73
2023/06/07 04:56:26;;;;;;;4.70;3.33;;;;;;;16.38;59.53;95059.88;5116343;28;20549;-73
2023/06/07 04:58:55;;;;;;;5.35;3.15;;;;;;;16.38;59.95;95062.66;5116522;28;20257;-73
2023/06/07 05:01:25;;;;;;;4.45;3.08;;;;;;;16.41;59.46;95064.66;5116343;28;20202;-73
2023/06/07 05:04:01;;;;;;;3.28;2.97;;;;;;;16.43;59.00;95064.28;5116514;28;20203;-74
2023/06/07 05:06:31;;;;;;;3.75;3.45;;;;;;;16.45;59.64;95071.06;5116125;28;20203;-73
2023/06/07 05:08:59;;;;;;;3.90;2.95;;;;;;;16.48;59.32;95072.25;5116873;28;20628;-73
2023/06/07 05:11:27;;;;;;;4.55;3.30;;;;;;;16.48;58.90;95073.03;5115864;28;20668;-73
2023/06/07 05:13:54;;;;;;;5.45;3.50;;;;;;;16.52;59.23;95073.88;5117101;28;20176;-73
2023/06/07 05:16:24;;;;;;;4.07;3.67;;;;;;;16.53;60.05;95069.09;5116895;28;20207;-72
2023/06/07 05:18:56;;;;;;;4.00;3.42;;;;;;;16.55;59.38;95075.84;5116056;28;20195;-73
2023/06/07 05:21:25;;;;;;;5.53;3.25;;;;;;;16.54;59.97;95071.47;5115649;28;20194;-73
2023/06/07 05:23:54;;;;;;;4.30;3.25;;;;;;;16.56;59.91;95065.53;5116222;28;20236;-74
2023/06/07 05:26:23;;;;;;;3.72;3.42;;;;;;;16.57;60.53;95073.50;5115873;28;20291;-72
2023/06/07 05:28:52;;;;;;;5.00;3.28;;;;;;;16.60;60.53;95078.28;5115512;28;20556;-72
2023/06/07 05:31:25;;;;;;;6.13;3.53;;;;;;;16.58;60.27;95079.84;5115653;28;20199;-73
2023/06/07 05:33:54;;;;;;;5.13;3.30;;;;;;;16.61;60.29;95079.88;5115947;28;20272;-73
2023/06/07 05:36:22;;;;;;;5.10;3.58;;;;;;;16.67;61.35;95080.31;5116342;28;20207;-72
2023/06/07 05:38:55;;;;;;;5.15;3.65;;;;;;;16.73;61.14;95075.94;5116285;28;20180;-72
2023/06/07 05:41:23;;;;;;;3.75;3.38;;;;;;;16.77;61.23;95075.97;5115271;28;20599;-72
2023/06/07 05:43:53;;;;;;;6.57;4.00;;;;;;;16.83;60.89;95071.63;5115444;28;20199;-72
2023/06/07 05:46:21;;;;;;;7.20;3.60;;;;;;;16.85;60.59;95077.59;5114422;28;20531;-72
2023/06/07 05:48:49;;;;;;;6.40;3.58;;;;;;;16.90;60.58;95076.41;5115928;28;20520;-72
2023/06/07 05:51:17;;;;;;;5.15;3.30;;;;;;;16.89;60.84;95072.06;5114995;28;20620;-72
2023/06/07 05:53:45;;;;;;;5.38;3.47;;;;;;;16.91;60.77;95073.22;5116128;28;20199;-72
2023/06/07 05:56:20;;;;;;;6.90;5.60;;;;;;;16.95;61.20;95070.44;5116213;28;20204;-73
2023/06/07 05:58:49;;;;;;;6.85;5.32;;;;;;;16.97;61.58;95068.09;5115425;28;20206;-72
2023/06/07 06:01:16;;;;;;;4.97;4.38;;;;;;;16.99;60.78;95065.69;5115732;28;20291;-73
2023/06/07 06:03:44;;;;;;;4.78;4.18;;;;;;;17.01;60.42;95063.31;5115128;28;20210;-73
2023/06/07 06:06:16;;;;;;;6.13;3.88;;;;;;;17.02;60.84;95068.47;5115032;28;20202;-73
2023/06/07 06:08:47;;;;;;;3.63;3.30;;;;;;;17.02;61.21;95064.91;5116025;28;20183;-74
2023/06/07 06:11:19;;;;;;;5.70;3.55;;;;;;;17.06;61.14;95068.50;5114991;28;20605;-73
2023/06/07 06:13:48;;;;;;;5.18;3.65;;;;;;;17.06;61.21;95058.13;5116043;28;20200;-74
2023/06/07 06:16:16;;;;;;;5.63;3.58;;;;;;;17.08;60.95;95069.69;5115268;28;20264;-73
2023/06/07 06:18:43;;;;;;;5.78;3.50;;;;;;;17.11;61.38;95067.31;5115807;28;20203;-73
2023/06/07 06:21:10;;;;;;;5.25;3.50;;;;;;;17.11;60.62;95072.91;5114805;28;20204;-73
2023/06/07 06:23:37;;;;;;;4.25;3.85;;;;;;;17.16;61.17;95070.50;5115643;28;20254;-73
2023/06/07 06:26:04;;;;;;;4.30;3.58;;;;;;;17.20;61.60;95073.31;5114656;28;20608;-73
2023/06/07 06:28:37;;;;;;;5.00;4.47;;;;;;;17.23;61.10;95072.50;5115612;28;20214;-73
2023/06/07 06:31:05;;;;;;;7.03;6.32;;;;;;;17.26;61.23;95066.94;5114600;28;20291;-73
2023/06/07 06:33:34;;;;;;;8.95;8.23;;;;;;;17.29;61.37;95059.78;5115362;28;20188;-74
2023/06/07 06:36:01;;;;;;;5.50;5.00;;;;;;;17.34;61.36;95070.53;5114810;28;20235;-73
2023/06/07 06:38:31;;;;;;;6.90;4.35;;;;;;;17.40;61.43;95077.31;5115620;28;20195;-73
2023/06/07 06:40:59;;;;;;;6.28;3.83;;;;;;;17.43;61.14;95072.91;5114702;28;20195;-73
2023/06/07 06:43:27;;;;;;;6.95;3.38;;;;;;;17.45;60.62;95074.13;5114881;28;20203;-74
2023/06/07 06:45:57;;;;;;;5.53;3.63;;;;;;;17.46;61.12;95069.34;5115363;28;20187;-73
2023/06/07 06:48:25;;;;;;;4.00;3.60;;;;;;;17.48;60.99;95067.75;5115453;28;20183;-74
2023/06/07 06:50:55;;;;;;;6.60;3.88;;;;;;;17.54;60.79;95068.19;5115499;28;20214;-74
2023/06/07 06:53:25;;;;;;;4.32;3.35;;;;;;;17.54;61.64;95074.53;5115406;28;20249;-74
2023/06/07 06:55:53;;;;;;;3.85;3.20;;;;;;;17.58;61.21;95074.53;5115085;28;20208;-73
2023/06/07 06:58:22;;;;;;;4.05;3.35;;;;;;;17.59;61.08;95064.97;5119131;28;20203;-73
2023/06/07 07:00:50;;;;;;;4.22;3.35;;;;;;;17.63;61.09;95070.56;5118837;28;20202;-73
2023/06/07 07:03:19;;;;;;;5.68;3.60;;;;;;;17.66;61.42;95069.75;5119249;28;20556;-73
2023/06/07 07:05:48;;;;;;;5.70;3.70;;;;;;;17.72;60.60;95070.94;5119629;28;20240;-73
2023/06/07 07:08:17;;;;;;;7.30;3.35;;;;;;;17.76;60.70;95060.63;5119520;28;20187;-73
2023/06/07 07:10:47;;;;;;;5.25;3.60;;;;;;;17.81;61.15;95065.78;5119153;28;20282;-74
2023/06/07 07:13:16;;;;;;;6.05;3.72;;;;;;;17.85;61.45;95060.22;5118536;28;20196;-74
2023/06/07 07:15:44;;;;;;;4.28;3.60;;;;;;;17.91;61.21;95058.63;5118364;28;20215;-74
2023/06/07 07:18:13;;;;;;;4.50;4.07;;;;;;;17.92;61.26;95061.00;5119373;28;20243;-73
2023/06/07 07:20:42;;;;;;;4.68;3.65;;;;;;;17.96;60.70;95061.78;5119229;28;20215;-74
2023/06/07 07:23:10;;;;;;;5.65;4.35;;;;;;;18.00;60.38;95056.19;5119081;28;20248;-73
2023/06/07 07:25:39;;;;;;;4.85;4.10;;;;;;;18.05;60.49;95055.81;5119152;28;20184;-73
2023/06/07 07:28:07;;;;;;;6.43;4.18;;;;;;;18.12;60.61;95052.19;5119041;28;20212;-73
2023/06/07 07:30:35;;;;;;;5.40;3.80;;;;;;;18.21;61.88;95045.00;5118064;28;20199;-74
2023/06/07 07:33:03;;;;;;;5.15;3.70;;;;;;;18.29;61.37;95054.94;5118860;28;20200;-73
2023/06/07 07:35:30;;;;;;;5.63;3.67;;;;;;;18.36;61.26;95054.13;5118584;28;20631;-74
2023/06/07 07:38:00;;;;;;;3.58;3.28;;;;;;;18.39;60.50;95053.31;5118285;28;20200;-73
2023/06/07 07:40:29;;;;;;;5.10;3.70;;;;;;;18.44;61.47;95047.31;5118023;28;20188;-73
2023/06/07 07:42:58;;;;;;;5.68;3.65;;;;;;;18.48;60.48;95053.69;5117773;28;20584;-73
2023/06/07 07:45:26;;;;;;;5.88;4.05;;;;;;;18.53;61.05;95058.06;5118795;28;20180;-73
2023/06/07 07:47:54;;;;;;;6.53;4.32;;;;;;;18.53;60.04;95060.88;5118502;28;20627;-74
2023/06/07 07:50:22;;;;;;;5.72;3.70;;;;;;;18.55;61.30;95055.66;5118417;28;20210;-74
2023/06/07 07:52:50;;;;;;;5.05;4.03;;;;;;;18.56;59.79;95057.25;5117789;28;20271;-73
2023/06/07 07:55:19;;;;;;;4.28;3.38;;;;;;;18.58;60.24;95048.47;5117482;28;20579;-73
2023/06/07 07:57:51;;;;;;;6.35;4.10;;;;;;;18.65;61.22;95051.22;5118596;28;20192;-73
2023/06/07 08:00:18;;;;;;;8.70;6.03;;;;;;;18.71;61.18;95052.44;5118493;28;20231;-72
2023/06/07 08:02:48;;;;;;;6.40;5.80;;;;;;;18.79;61.59;95062.38;5117537;28;20199;-73
2023/06/07 08:05:17;;;;;;;12.82;10.02;;;;;;;18.84;61.28;95058.34;5118423;28;20184;-73
2023/06/07 08:07:45;;;;;;;5.15;4.65;;;;;;;18.91;61.43;95058.31;5116832;28;20290;-73
2023/06/07 08:10:12;;;;;;;4.45;3.92;;;;;;;18.90;60.44;95057.53;5118344;28;20184;-73
2023/06/07 08:12:40;;;;;;;6.35;4.13;;;;;;;18.93;60.74;95058.72;5118033;28;20238;-73
2023/06/07 08:15:09;;;;;;;4.28;3.80;;;;;;;18.95;60.07;95053.50;5118107;28;20184;-73
2023/06/07 08:17:36;;;;;;;5.45;3.67;;;;;;;18.98;60.03;95053.47;5117878;28;20543;-72
2023/06/07 08:20:05;;;;;;;4.72;4.13;;;;;;;19.05;59.93;95051.88;5117400;28;20195;-72
2023/06/07 08:22:32;;;;;;;5.28;3.95;;;;;;;19.14;59.88;95055.00;5116796;28;20219;-72
2023/06/07 08:25:01;;;;;;;4.78;3.47;;;;;;;19.18;60.03;95053.78;5117110;28;20195;-72
2023/06/07 08:27:29;;;;;;;4.03;3.63;;;;;;;19.19;59.82;95051.78;5117213;28;20526;-72
2023/06/07 08:29:58;;;;;;;5.65;4.05;;;;;;;19.21;60.07;95052.97;5117875;28;20195;-74
2023/06/07 08:32:26;;;;;;;4.40;3.90;;;;;;;19.28;60.66;95059.69;5116783;28;20196;-72
2023/06/07 08:34:56;;;;;;;4.72;3.83;;;;;;;19.33;60.47;95053.69;5116884;28;20200;-72
2023/06/07 08:37:24;;;;;;;4.03;3.60;;;;;;;19.37;60.21;95057.25;5117726;28;20212;-73
2023/06/07 08:39:53;;;;;;;5.70;3.90;;;;;;;19.41;59.02;95058.81;5116520;28;20207;-73
2023/06/07 08:42:21;;;;;;;6.60;4.15;;;;;;;19.44;59.47;95063.59;5116848;28;20208;-73
2023/06/07 08:44:50;;;;;;;5.68;4.03;;;;;;;19.47;59.83;95059.19;5117452;28;20192;-72
2023/06/07 08:47:22;;;;;;;5.13;3.55;;;;;;;19.51;59.01;95056.38;5116612;28;20191;-73
2023/06/07 08:49:53;;;;;;;5.78;4.22;;;;;;;19.51;58.71;95054.34;5117578;28;20180;-73
2023/06/07 08:52:20;;;;;;;5.03;3.50;;;;;;;19.54;58.59;95056.34;5116370;28;20206;-73
2023/06/07 08:54:50;;;;;;;5.45;3.97;;;;;;;19.61;59.89;95056.28;5116700;28;20195;-74
2023/06/07 08:57:19;;;;;;;4.20;3.80;;;;;;;19.65;59.97;95059.88;5116428;28;20215;-74
2023/06/07 08:59:48;;;;;;;4.15;3.65;;;;;;;19.74;59.34;95056.59;5116828;28;20203;-73
2023/06/07 09:02:17;;;;;;;5.60;4.10;;;;;;;19.84;59.12;95058.50;5116589;28;20196;-73
2023/06/07 09:04:51;;;;;;;4.30;3.95;;;;;;;19.87;57.95;95057.69;5117321;28;20223;-73
2023/06/07 09:07:18;;;;;;;4.85;3.88;;;;;;;19.94;58.92;95045.63;5116893;28;20611;-73
2023/06/07 09:09:46;;;;;;;6.50;3.95;;;;;;;20.05;58.11;95051.13;5116371;28;20199;-73
2023/06/07 09:12:16;;;;;;;5.22;3.75;;;;;;;20.13;59.33;95042.25;5115958;28;20207;-73
2023/06/07 09:14:47;;;;;;;5.50;3.85;;;;;;;20.26;61.09;95047.31;5116273;28;20203;-73
2023/06/07 09:17:15;;;;;;;5.90;4.40;;;;;;;20.36;60.70;95044.38;5116883;28;20216;-73
2023/06/07 09:19:44;;;;;;;5.22;4.15;;;;;;;20.40;59.27;95039.53;5116905;28;20212;-73
2023/06/07 09:22:17;;;;;;;4.55;4.15;;;;;;;20.44;59.86;95045.09;5115962;28;20200;-74
2023/06/07 09:24:46;;;;;;;5.10;3.83;;;;;;;20.46;58.73;95044.69;5116160;28;20235;-73
2023/06/07 09:27:16;;;;;;;5.25;4.30;;;;;;;20.49;58.84;95038.28;5115848;28;20260;-72
2023/06/07 09:29:44;;;;;;;5.18;4.47;;;;;;;20.53;59.67;95039.03;5116984;28;20215;-73
2023/06/07 09:32:19;;;;;;;5.47;4.32;;;;;;;20.56;60.03;95036.22;5116882;28;20180;-73
2023/06/07 09:34:49;;;;;;;5.50;3.90;;;;;;;20.63;59.65;95041.72;5115483;28;20199;-73
2023/06/07 09:37:20;;;;;;;4.53;3.83;;;;;;;20.70;58.38;95032.44;5115505;28;20207;-72
2023/06/07 09:39:54;;;;;;;4.07;3.70;;;;;;;20.77;58.53;95037.97;5116560;27;20244;-73
2023/06/07 09:42:22;;;;;;;5.95;3.80;;;;;;;20.80;58.09;95033.50;5116519;28;20195;-74
2023/06/07 09:44:49;;;;;;;5.05;4.07;;;;;;;20.83;56.41;95033.44;5116207;28;20581;-74
2023/06/07 09:47:22;;;;;;;3.63;3.33;;;;;;;20.86;56.88;95034.63;5115353;28;20199;-72
2023/06/07 09:49:54;;;;;;;4.15;3.63;;;;;;;20.86;55.16;95031.81;5115510;28;20245;-73
2023/06/07 09:52:28;;;;;;;3.72;3.42;;;;;;;20.85;56.23;95028.22;5116281;28;20230;-73
2023/06/07 09:54:55;;;;;;;4.40;4.00;;;;;;;20.84;55.31;95026.66;5115840;28;20180;-73
2023/06/07 09:57:31;;;;;;;4.85;3.80;;;;;;;20.83;55.56;95030.66;5115240;28;20219;-73
2023/06/07 10:00:07;;;;;;;4.57;3.55;;;;;;;20.82;54.90;95031.88;5115779;28;20192;-73
2023/06/07 10:02:34;;;;;;;4.97;3.45;;;;;;;20.82;56.26;95023.47;5115085;28;20293;-73
2023/06/07 10:05:02;;;;;;;5.18;3.80;;;;;;;20.83;55.92;95027.06;5116001;28;20210;-73
2023/06/07 10:07:36;;;;;;;5.53;3.67;;;;;;;20.84;55.41;95031.44;5115833;28;20575;-74
2023/06/07 10:10:07;;;;;;;4.05;3.67;;;;;;;20.80;53.19;95025.88;5115319;28;20196;-74
2023/06/07 10:12:38;;;;;;;4.03;3.55;;;;;;;20.82;53.78;95020.66;5115940;28;20191;-74
2023/06/07 10:15:09;;;;;;;5.28;3.80;;;;;;;20.84;54.45;95020.22;5115535;28;20287;-73
2023/06/07 10:17:50;;;;;;;4.97;4.15;;;;;;;20.86;56.19;95015.81;5115575;28;20203;-73
2023/06/07 10:20:25;;;;;;;3.70;3.40;;;;;;;20.90;55.92;95012.94;5115049;28;20191;-74
2023/06/07 10:22:59;;;;;;;4.20;3.90;;;;;;;20.96;54.78;95016.09;5115394;28;20331;-74
2023/06/07 10:25:31;;;;;;;4.38;3.78;;;;;;;20.97;56.06;95012.84;5114921;28;20203;-73
2023/06/07 10:28:14;;;;;;;6.70;3.65;;;;;;;21.00;55.01;95011.22;5115007;28;20257;-74
2023/06/07 10:30:57;;;;;;;8.00;3.85;;;;;;;21.02;55.73;95003.97;5114087;28;20247;-73
2023/06/07 10:33:25;;;;;;;4.18;3.80;;;;;;;21.06;55.15;95007.53;5115479;28;20191;-73
2023/06/07 10:35:53;;;;;;;4.22;3.78;;;;;;;21.10;55.51;94996.25;5114496;28;20231;-73
2023/06/07 10:38:24;;;;;;;5.85;3.70;;;;;;;21.17;56.33;95012.97;5115386;28;20206;-73
2023/06/07 10:40:53;;;;;;;5.63;4.22;;;;;;;21.21;55.60;95010.13;5115714;28;20244;-73
2023/06/07 10:43:21;;;;;;;5.32;4.07;;;;;;;21.22;54.65;95000.50;5115249;28;20195;-73
2023/06/07 10:45:51;;;;;;;5.07;4.07;;;;;;;21.23;54.18;94997.25;5115563;28;20200;-73
2023/06/07 10:48:35;;;;;;;6.30;4.93;;;;;;;21.29;56.46;95003.19;5115269;28;20250;-73
2023/06/07 10:51:05;;;;;;;6.68;4.43;;;;;;;21.29;54.80;94998.38;5115186;28;20184;-73
2023/06/07 10:53:55;;;;;;;6.57;4.32;;;;;;;21.34;54.88;95003.50;5114867;28;20202;-73
2023/06/07 10:56:28;;;;;;;4.38;3.97;;;;;;;21.44;54.49;95009.41;5115597;28;20493;-73
2023/06/07 10:58:57;;;;;;;4.57;3.78;;;;;;;21.47;53.05;94994.53;5114635;28;20207;-73
2023/06/07 11:01:26;;;;;;;5.60;4.00;;;;;;;21.49;53.52;94989.25;5114263;28;20204;-74
2023/06/07 11:03:57;;;;;;;6.05;3.90;;;;;;;21.53;53.99;94990.00;5115825;28;20208;-73
2023/06/07 11:06:26;;;;;;;6.38;4.00;;;;;;;21.56;52.80;94994.75;5115337;28;20203;-73
2023/06/07 11:09:18;;;;;;;3.97;3.47;;;;;;;21.60;53.92;94989.88;5115237;28;20203;-73
2023/06/07 11:11:47;;;;;;;3.95;3.47;;;;;;;21.63;53.31;94986.22;5114107;28;20638;-73
2023/06/07 11:14:16;;;;;;;5.15;3.65;;;;;;;21.67;52.68;94989.75;5114764;28;20191;-73
2023/06/07 11:16:44;;;;;;;6.00;3.85;;;;;;;21.75;52.52;94973.59;5115203;28;20218;-73
2023/06/07 11:19:16;;;;;;;4.32;3.58;;;;;;;21.80;51.55;94973.13;5114359;28;20207;-73
2023/06/07 11:22:09;;;;;;;6.32;4.30;;;;;;;21.91;53.14;94978.53;5114151;28;20669;-73
2023/06/07 11:24:39;;;;;;;4.10;3.75;;;;;;;21.98;51.57;94969.97;5115029;28;20243;-73
2023/06/07 11:27:14;;;;;;;4.93;3.90;;;;;;;22.07;52.83;94970.19;5114219;28;20208;-74
2023/06/07 11:29:46;;;;;;;5.20;3.90;;;;;;;22.09;51.76;94965.75;5115278;28;20566;-73
2023/06/07 11:32:13;;;;;;;4.22;3.83;;;;;;;22.17;52.39;94965.63;5113919;28;20631;-73
2023/06/07 11:34:41;;;;;;;4.47;3.63;;;;;;;22.25;52.11;94955.84;5115117;28;20215;-74
2023/06/07 11:37:18;;;;;;;3.75;3.45;;;;;;;22.30;51.95;94958.16;5114688;28;20280;-74
2023/06/07 11:39:48;;;;;;;4.38;3.78;;;;;;;22.35;52.14;94957.66;5114888;28;20199;-73
2023/06/07 11:42:16;;;;;;;4.25;3.75;;;;;;;22.44;53.38;94948.63;5114271;28;20200;-73
2023/06/07 11:44:44;;;;;;;4.65;3.42;;;;;;;22.45;51.48;94951.03;5117988;28;20206;-73
2023/06/07 11:47:15;;;;;;;4.93;3.42;;;;;;;22.43;51.33;94945.03;5118584;28;20214;-74